createdAt,value
2022-09-24T00:00:33.189Z,94.30
2022-09-24T00:02:36.195Z,94.32
2022-09-24T00:04:39.229Z,92.96
2022-09-24T00:06:44.382Z,94.36
2022-09-24T00:08:48.699Z,93.17
2022-09-24T00:10:52.998Z,93.53
2022-09-24T00:12:56.214Z,94.05
2022-09-24T00:14:59.108Z,93.94
2022-09-24T00:17:02.038Z,94.75
2022-09-24T00:19:05.223Z,94.50
2022-09-24T00:21:19.677Z,94.56
2022-09-24T00:23:22.725Z,94.16
2022-09-24T00:25:43.362Z,94.82
2022-09-24T00:27:47.653Z,95.14
2022-09-24T00:29:50.639Z,94.94
2022-09-24T00:31:54.258Z,94.27
2022-09-24T00:33:58.213Z,95.34
2022-09-24T00:36:02.454Z,94.65
2022-09-24T00:38:06.188Z,94.73
2022-09-24T00:40:10.866Z,94.12
2022-09-24T00:42:14.005Z,94.29
2022-09-24T00:44:53.705Z,94.24
2022-09-24T00:46:58.221Z,93.57
2022-09-24T00:49:03.896Z,94.81
2022-09-24T00:51:07.059Z,94.06
2022-09-24T00:53:13.153Z,93.71
2022-09-24T00:55:16.495Z,94.64
2022-09-24T00:57:19.491Z,94.75
2022-09-24T00:59:24.558Z,95.08
2022-09-24T01:01:27.514Z,95.45
2022-09-24T01:03:33.427Z,94.03
2022-09-24T01:05:36.988Z,95.20
2022-09-24T01:07:39.957Z,94.04
2022-09-24T01:09:43.040Z,94.82
2022-09-24T01:11:49.960Z,95.46
2022-09-24T01:14:14.687Z,95.73
2022-09-24T01:16:26.377Z,94.13
2022-09-24T01:18:36.970Z,95.04
2022-09-24T01:20:57.734Z,94.01
2022-09-24T01:23:12.531Z,94.61
2022-09-24T01:25:21.764Z,94.37
2022-09-24T01:27:38.205Z,95.47
2022-09-24T01:29:49.800Z,95.59
2022-09-24T01:31:55.379Z,94.71
2022-09-24T01:34:00.376Z,94.94
2022-09-24T01:36:08.224Z,94.04
2022-09-24T01:38:15.187Z,94.56
2022-09-24T01:40:19.528Z,94.80
2022-09-24T01:42:23.433Z,94.78
2022-09-24T01:44:26.601Z,95.42
2022-09-24T01:46:31.967Z,94.29
2022-09-24T01:48:37.294Z,94.56
2022-09-24T01:50:45.053Z,95.48
2022-09-24T01:52:52.118Z,94.36
2022-09-24T01:54:56.428Z,95.10
2022-09-24T01:57:05.109Z,95.64
2022-09-24T01:59:12.983Z,94.54
2022-09-24T02:01:19.123Z,95.39
2022-09-24T02:03:28.805Z,95.59
2022-09-24T02:05:34.121Z,95.76
2022-09-24T02:07:40.700Z,95.62
2022-09-24T02:09:44.783Z,96.00
2022-09-24T02:11:50.896Z,96.15
2022-09-24T02:13:56.882Z,95.85
2022-09-24T02:16:01.291Z,95.79
2022-09-24T02:18:08.138Z,94.93
2022-09-24T02:20:15.121Z,94.38
2022-09-24T02:22:18.709Z,94.19
2022-09-24T02:24:24.073Z,94.06
2022-09-24T02:26:27.005Z,94.09
2022-09-24T02:28:30.468Z,93.79
2022-09-24T02:30:37.802Z,93.90
2022-09-24T02:32:42.118Z,93.84
2022-09-24T02:34:47.223Z,93.86
2022-09-24T02:36:54.024Z,93.74
2022-09-24T02:38:57.222Z,94.75
2022-09-24T02:41:00.150Z,95.45
2022-09-24T02:43:03.101Z,95.00
2022-09-24T02:45:08.031Z,94.39
2022-09-24T02:47:10.995Z,96.04
2022-09-24T02:49:14.135Z,95.49
2022-09-24T02:51:17.135Z,96.25
2022-09-24T02:53:21.402Z,95.70
2022-09-24T02:55:24.313Z,94.69
2022-09-24T02:57:27.239Z,94.98
2022-09-24T02:59:30.206Z,95.30
2022-09-24T03:01:33.727Z,95.20
2022-09-24T03:03:36.779Z,94.52
2022-09-24T03:05:39.716Z,95.62
2022-09-24T03:07:45.727Z,95.36
2022-09-24T03:09:53.387Z,95.40
2022-09-24T03:11:56.777Z,94.08
2022-09-24T03:14:00.496Z,95.38
2022-09-24T03:16:03.964Z,95.07
2022-09-24T03:18:07.485Z,95.39
2022-09-24T03:20:10.748Z,94.36
2022-09-24T03:22:13.677Z,95.62
2022-09-24T03:24:16.583Z,95.63
2022-09-24T03:26:20.883Z,94.54
2022-09-24T03:28:24.052Z,96.55
2022-09-24T03:30:44.551Z,94.25
2022-09-24T03:32:48.770Z,95.75
2022-09-24T03:34:51.688Z,95.51
2022-09-24T03:36:54.600Z,96.43
2022-09-24T03:38:58.478Z,96.41
2022-09-24T03:41:02.060Z,96.04
2022-09-24T03:43:06.313Z,96.21
2022-09-24T03:45:10.183Z,96.53
2022-09-24T03:47:13.564Z,95.68
2022-09-24T03:49:17.013Z,95.16
2022-09-24T03:51:20.522Z,97.05
2022-09-24T03:53:23.600Z,96.74
2022-09-24T03:55:26.640Z,97.12
2022-09-24T03:57:29.519Z,96.15
2022-09-24T03:59:33.879Z,95.17
2022-09-24T04:01:37.353Z,96.08
2022-09-24T04:03:40.675Z,97.09
2022-09-24T04:05:43.700Z,95.69
2022-09-24T04:07:46.780Z,97.25
2022-09-24T04:09:49.689Z,95.79
2022-09-24T04:11:53.361Z,95.98
2022-09-24T04:13:56.242Z,95.47
2022-09-24T04:16:04.665Z,95.69
2022-09-24T04:18:07.954Z,96.07
2022-09-24T04:20:12.933Z,96.97
2022-09-24T04:22:15.818Z,97.06
2022-09-24T04:24:19.053Z,96.47
2022-09-24T04:26:21.923Z,96.24
2022-09-24T04:28:25.194Z,96.93
2022-09-24T04:30:28.941Z,95.51
2022-09-24T04:32:33.403Z,95.80
2022-09-24T04:34:36.385Z,96.06
2022-09-24T04:36:39.316Z,95.13
2022-09-24T04:38:42.287Z,96.95
2022-09-24T04:40:47.222Z,97.11
2022-09-24T04:42:50.414Z,96.61
2022-09-24T04:44:56.139Z,96.71
2022-09-24T04:47:03.015Z,97.12
2022-09-24T04:49:09.632Z,95.97
2022-09-24T04:51:12.722Z,95.32
2022-09-24T04:53:15.640Z,96.38
2022-09-24T04:55:20.693Z,97.13
2022-09-24T04:57:23.734Z,96.24
2022-09-24T04:59:26.695Z,97.79
2022-09-24T05:01:30.212Z,96.75
2022-09-24T05:03:33.218Z,96.80
2022-09-24T05:05:37.606Z,96.47
2022-09-24T05:07:40.951Z,96.25
2022-09-24T05:09:43.948Z,96.08
2022-09-24T05:11:46.897Z,96.67
2022-09-24T05:13:49.900Z,96.87
2022-09-24T05:15:52.880Z,97.78
2022-09-24T05:17:55.875Z,96.19
2022-09-24T05:19:59.609Z,97.56
2022-09-24T05:22:03.975Z,97.20
2022-09-24T05:24:07.432Z,97.88
2022-09-24T05:26:27.657Z,97.52
2022-09-24T05:28:33.111Z,97.18
2022-09-24T05:30:37.010Z,96.93
2022-09-24T05:32:40.146Z,96.39
2022-09-24T05:34:43.600Z,96.17
2022-09-24T05:36:46.697Z,97.02
2022-09-24T05:38:50.979Z,96.25
2022-09-24T05:40:54.829Z,96.70
2022-09-24T05:43:01.268Z,97.02
2022-09-24T05:45:05.053Z,97.74
2022-09-24T05:47:08.062Z,96.46
2022-09-24T05:49:11.045Z,98.37
2022-09-24T05:51:14.073Z,97.80
2022-09-24T05:53:17.048Z,96.33
2022-09-24T05:55:21.432Z,95.76
2022-09-24T05:57:24.352Z,95.82
2022-09-24T05:59:27.673Z,97.58
2022-09-24T06:01:31.222Z,97.64
2022-09-24T06:03:34.295Z,96.77
2022-09-24T06:05:37.307Z,96.17
2022-09-24T06:07:40.570Z,97.32
2022-09-24T06:09:44.133Z,97.62
2022-09-24T06:11:50.387Z,97.17
2022-09-24T06:13:53.330Z,95.60
2022-09-24T06:16:01.467Z,96.69
2022-09-24T06:18:04.508Z,96.08
2022-09-24T06:20:16.455Z,95.14
2022-09-24T06:22:22.049Z,95.36
2022-09-24T06:24:26.909Z,95.28
2022-09-24T06:26:29.834Z,95.41
2022-09-24T06:28:34.144Z,95.48
2022-09-24T06:30:38.755Z,94.74
2022-09-24T06:32:41.709Z,95.20
2022-09-24T06:34:44.653Z,93.77
2022-09-24T06:36:47.575Z,94.98
2022-09-24T06:38:52.274Z,94.31
2022-09-24T06:40:59.964Z,94.89
2022-09-24T06:43:03.014Z,95.38
2022-09-24T06:45:08.720Z,94.05
2022-09-24T06:47:12.597Z,94.63
2022-09-24T06:49:15.554Z,94.55
2022-09-24T06:51:18.643Z,95.72
2022-09-24T06:53:21.676Z,96.06
2022-09-24T06:55:24.840Z,95.63
2022-09-24T06:57:29.013Z,95.87
2022-09-24T06:59:32.106Z,96.17
2022-09-24T07:01:36.622Z,95.74
2022-09-24T07:03:40.256Z,95.67
2022-09-24T07:05:44.061Z,94.44
2022-09-24T07:07:47.176Z,94.64
2022-09-24T07:09:50.157Z,94.44
2022-09-24T07:11:53.100Z,94.28
2022-09-24T07:13:56.071Z,94.16
2022-09-24T07:16:01.408Z,93.52
2022-09-24T07:18:05.983Z,93.67
2022-09-24T07:20:09.947Z,94.27
2022-09-24T07:22:12.949Z,94.37
2022-09-24T07:24:15.903Z,93.96
2022-09-24T07:26:18.952Z,93.39
2022-09-24T07:28:21.872Z,92.84
2022-09-24T07:30:27.197Z,93.19
2022-09-24T07:32:30.830Z,93.11
2022-09-24T07:34:35.181Z,93.09
2022-09-24T07:36:38.138Z,93.00
2022-09-24T07:38:41.114Z,92.92
2022-09-24T07:40:44.906Z,93.91
2022-09-24T07:42:48.377Z,93.50
2022-09-24T07:44:51.376Z,93.12
2022-09-24T07:46:54.457Z,92.87
2022-09-24T07:48:57.407Z,93.41
2022-09-24T07:51:01.753Z,93.34
2022-09-24T07:53:04.734Z,92.04
2022-09-24T07:55:09.155Z,91.98
2022-09-24T07:57:13.778Z,93.05
2022-09-24T07:59:16.718Z,92.48
2022-09-24T08:01:20.382Z,92.08
2022-09-24T08:03:23.521Z,92.03
2022-09-24T08:05:26.521Z,91.43
2022-09-24T08:07:30.818Z,90.08
2022-09-24T08:09:33.846Z,91.11
2022-09-24T08:11:36.889Z,91.69
2022-09-24T08:13:40.051Z,92.28
2022-09-24T08:15:43.071Z,91.21
2022-09-24T08:17:46.326Z,91.64
2022-09-24T08:19:49.267Z,91.79
2022-09-24T08:21:53.927Z,93.23
2022-09-24T08:23:58.271Z,90.67
2022-09-24T08:26:01.278Z,91.95
2022-09-24T08:28:05.011Z,90.91
2022-09-24T08:30:09.291Z,89.96
2022-09-24T08:32:12.952Z,90.35
2022-09-24T08:34:16.212Z,90.23
2022-09-24T08:36:19.289Z,91.47
2022-09-24T08:38:22.454Z,90.62
2022-09-24T08:40:30.169Z,90.45
2022-09-24T08:42:38.251Z,89.62
2022-09-24T08:45:01.097Z,90.82
2022-09-24T08:47:22.245Z,91.87
2022-09-24T08:49:29.136Z,91.99
2022-09-24T08:51:37.547Z,90.67
2022-09-24T08:53:46.151Z,92.88
2022-09-24T08:55:52.492Z,91.15
2022-09-24T08:58:00.611Z,90.92
2022-09-24T09:00:04.504Z,90.41
2022-09-24T09:02:19.350Z,90.68
2022-09-24T09:04:26.995Z,90.46
2022-09-24T09:06:53.788Z,90.33
2022-09-24T09:09:16.599Z,89.54
2022-09-24T09:11:24.023Z,87.47
2022-09-24T09:13:29.521Z,85.90
2022-09-24T09:15:35.079Z,86.45
2022-09-24T09:17:45.272Z,86.64
2022-09-24T09:19:53.838Z,86.47
2022-09-24T09:21:58.645Z,85.51
2022-09-24T09:24:03.065Z,86.08
2022-09-24T09:26:06.895Z,85.38
2022-09-24T09:28:15.343Z,84.50
2022-09-24T09:30:20.843Z,84.06
2022-09-24T09:32:32.314Z,84.27
2022-09-24T09:34:50.998Z,85.30
2022-09-24T09:37:04.963Z,83.95
2022-09-24T09:39:21.179Z,81.83
2022-09-24T09:41:30.397Z,82.03
2022-09-24T09:43:35.356Z,79.51
2022-09-24T09:45:43.104Z,79.04
2022-09-24T09:47:48.574Z,80.00
2022-09-24T09:49:53.923Z,79.87
2022-09-24T09:51:57.800Z,79.24
2022-09-24T09:54:02.085Z,79.05
2022-09-24T09:56:07.440Z,79.87
2022-09-24T09:58:19.769Z,80.63
2022-09-24T10:00:28.862Z,78.55
2022-09-24T10:02:33.553Z,79.38
2022-09-24T10:04:40.280Z,76.65
2022-09-24T10:06:43.228Z,76.71
2022-09-24T10:08:46.155Z,75.63
2022-09-24T10:10:55.293Z,73.29
2022-09-24T10:13:09.589Z,71.47
2022-09-24T10:15:19.118Z,73.17
2022-09-24T10:17:25.566Z,73.87
2022-09-24T10:19:29.932Z,74.52
2022-09-24T10:21:34.323Z,73.98
2022-09-24T10:23:39.247Z,73.93
2022-09-24T10:25:42.360Z,73.95
2022-09-24T10:27:45.327Z,75.20
2022-09-24T10:30:05.871Z,75.98
2022-09-24T10:32:16.074Z,76.21
2022-09-24T10:34:23.434Z,76.14
2022-09-24T10:36:28.061Z,73.90
2022-09-24T10:38:31.838Z,75.45
2022-09-24T10:40:41.066Z,77.61
2022-09-24T10:42:44.147Z,77.60
2022-09-24T10:44:52.590Z,78.22
2022-09-24T10:47:08.919Z,76.75
2022-09-24T10:49:20.435Z,77.04
2022-09-24T10:51:30.049Z,78.14
2022-09-24T10:53:44.125Z,77.19
2022-09-24T10:55:55.453Z,76.22
2022-09-24T10:58:04.053Z,76.95
2022-09-24T11:00:12.721Z,75.33
2022-09-24T11:02:43.152Z,75.42
2022-09-24T11:04:52.019Z,75.36
2022-09-24T11:07:17.959Z,75.40
2022-09-24T11:09:27.440Z,76.13
2022-09-24T11:11:40.106Z,77.46
2022-09-24T11:13:51.620Z,77.10
2022-09-24T11:16:18.058Z,76.78
2022-09-24T11:18:32.482Z,77.39
2022-09-24T11:20:37.799Z,76.98
2022-09-24T11:22:51.734Z,76.66
2022-09-24T11:25:11.224Z,75.71
2022-09-24T11:27:47.539Z,74.35
2022-09-24T11:29:59.854Z,75.73
2022-09-24T11:32:08.579Z,75.77
2022-09-24T11:34:36.899Z,76.23
2022-09-24T11:37:01.059Z,75.56
2022-09-24T11:39:24.563Z,75.29
2022-09-24T11:41:37.992Z,76.53
2022-09-24T11:44:22.239Z,75.29
2022-09-24T11:46:37.979Z,73.03
2022-09-24T11:48:56.648Z,73.75
2022-09-24T11:51:05.783Z,76.53
2022-09-24T11:53:14.465Z,76.23
2022-09-24T11:55:21.311Z,73.96
2022-09-24T11:57:26.663Z,73.56
2022-09-24T11:59:38.848Z,73.85
2022-09-24T12:01:48.697Z,74.69
2022-09-24T12:03:57.048Z,76.44
2022-09-24T12:06:04.337Z,74.95
2022-09-24T12:08:12.397Z,76.79
2022-09-24T12:10:29.823Z,76.25
2022-09-24T12:12:36.536Z,74.94
2022-09-24T12:14:45.998Z,75.92
2022-09-24T12:16:51.124Z,75.71
2022-09-24T12:18:56.952Z,76.35
2022-09-24T12:21:01.921Z,75.13
2022-09-24T12:23:07.927Z,76.00
2022-09-24T12:25:13.056Z,75.98
2022-09-24T12:27:20.418Z,75.76
2022-09-24T12:29:56.087Z,76.72
2022-09-24T12:32:22.215Z,75.94
2022-09-24T12:34:30.957Z,75.23
2022-09-24T12:36:57.028Z,76.27
2022-09-24T12:39:03.847Z,76.17
2022-09-24T12:41:22.077Z,77.16
2022-09-24T12:43:31.410Z,76.79
2022-09-24T12:45:35.209Z,76.42
2022-09-24T12:47:47.274Z,77.03
2022-09-24T12:49:53.805Z,77.32
2022-09-24T12:51:57.984Z,77.96
2022-09-24T12:54:07.115Z,77.94
2022-09-24T12:56:11.403Z,79.37
2022-09-24T12:58:29.283Z,81.74
2022-09-24T13:00:38.440Z,80.37
2022-09-24T13:02:46.249Z,80.20
2022-09-24T13:04:52.776Z,79.71
2022-09-24T13:06:56.058Z,79.31
2022-09-24T13:08:59.156Z,80.26
2022-09-24T13:11:05.768Z,81.16
2022-09-24T13:13:22.704Z,80.73
2022-09-24T13:15:31.963Z,80.31
2022-09-24T13:17:38.172Z,81.52
2022-09-24T13:19:43.631Z,82.29
2022-09-24T13:21:54.843Z,82.96
2022-09-24T13:23:58.462Z,83.23
2022-09-24T13:26:02.930Z,84.10
2022-09-24T13:28:21.798Z,84.96
2022-09-24T13:30:35.986Z,86.57
2022-09-24T13:32:45.105Z,87.24
2022-09-24T13:34:50.428Z,87.77
2022-09-24T13:36:58.438Z,89.14
2022-09-24T13:39:06.077Z,89.57
2022-09-24T13:41:22.317Z,89.92
2022-09-24T13:43:36.832Z,90.22
2022-09-24T13:45:43.724Z,90.30
2022-09-24T13:47:49.039Z,90.30
2022-09-24T13:49:53.128Z,90.30
2022-09-24T13:52:04.097Z,89.88
2022-09-24T13:54:13.147Z,90.45
2022-09-24T13:56:18.366Z,90.95
2022-09-24T13:58:28.665Z,91.49
2022-09-24T14:00:32.727Z,92.44
2022-09-24T14:02:38.883Z,93.16
2022-09-24T14:04:43.126Z,94.09
2022-09-24T14:06:50.385Z,94.10
2022-09-24T14:08:53.338Z,93.84
2022-09-24T14:11:08.015Z,93.71
2022-09-24T14:13:19.274Z,93.21
2022-09-24T14:15:22.324Z,92.17
2022-09-24T14:17:25.898Z,92.18
2022-09-24T14:19:30.271Z,93.12
2022-09-24T14:21:35.573Z,93.31
2022-09-24T14:23:41.396Z,93.82
2022-09-24T14:25:44.413Z,94.35
2022-09-24T14:27:49.487Z,94.54
2022-09-24T14:29:55.805Z,95.17
2022-09-24T14:32:00.168Z,95.52
2022-09-24T14:34:03.795Z,95.29
2022-09-24T14:36:11.679Z,94.86
2022-09-24T14:38:16.532Z,94.15
2022-09-24T14:40:21.883Z,92.74
2022-09-24T14:42:28.232Z,92.70
2022-09-24T14:44:31.334Z,92.21
2022-09-24T14:46:36.481Z,91.23
2022-09-24T14:48:41.011Z,91.51
2022-09-24T14:50:44.089Z,92.26
2022-09-24T14:52:56.679Z,92.85
2022-09-24T14:55:09.797Z,93.73
2022-09-24T14:57:24.490Z,93.66
2022-09-24T14:59:31.596Z,93.08
2022-09-24T15:01:34.855Z,94.41
2022-09-24T15:03:40.966Z,95.27
2022-09-24T15:05:46.175Z,95.83
2022-09-24T15:07:50.763Z,95.83
2022-09-24T15:09:54.957Z,96.38
2022-09-24T15:12:08.700Z,95.90
2022-09-24T15:14:15.648Z,95.23
2022-09-24T15:16:21.298Z,95.38
2022-09-24T15:18:24.484Z,94.97
2022-09-24T15:20:27.501Z,95.66
2022-09-24T15:22:31.510Z,95.12
2022-09-24T15:24:35.848Z,96.41
2022-09-24T15:26:41.459Z,96.00
2022-09-24T15:28:44.397Z,96.32
2022-09-24T15:30:47.421Z,95.94
2022-09-24T15:32:51.163Z,95.78
2022-09-24T15:34:54.989Z,96.77
2022-09-24T15:36:59.735Z,96.03
2022-09-24T15:39:04.876Z,96.48
2022-09-24T15:41:09.801Z,96.48
2022-09-24T15:43:21.999Z,96.26
2022-09-24T15:45:26.679Z,95.86
2022-09-24T15:47:29.690Z,94.77
2022-09-24T15:49:32.714Z,95.76
2022-09-24T15:51:35.717Z,95.52
2022-09-24T15:53:38.670Z,95.46
2022-09-24T15:55:41.727Z,96.30
2022-09-24T15:57:46.900Z,96.26
2022-09-24T15:59:50.115Z,96.79
2022-09-24T16:01:55.575Z,96.47
2022-09-24T16:03:58.842Z,95.87
2022-09-24T16:06:02.066Z,95.43
2022-09-24T16:08:04.983Z,95.62
2022-09-24T16:10:09.213Z,96.00
2022-09-24T16:12:15.250Z,96.03
2022-09-24T16:14:19.680Z,95.63
2022-09-24T16:16:22.807Z,96.42
2022-09-24T16:18:26.788Z,96.98
2022-09-24T16:20:29.836Z,97.21
2022-09-24T16:22:32.784Z,97.45
2022-09-24T16:24:36.134Z,97.48
2022-09-24T16:26:39.542Z,97.29
2022-09-24T16:28:42.526Z,97.23
2022-09-24T16:30:46.915Z,97.46
2022-09-24T16:32:50.080Z,96.59
2022-09-24T16:34:54.814Z,96.56
2022-09-24T16:36:57.852Z,95.97
2022-09-24T16:39:02.126Z,96.62
2022-09-24T16:41:05.494Z,96.51
2022-09-24T16:43:08.543Z,95.92
2022-09-24T16:45:12.470Z,96.13
2022-09-24T16:47:17.660Z,95.94
2022-09-24T16:49:20.655Z,96.15
2022-09-24T16:51:23.687Z,96.91
2022-09-24T16:53:26.648Z,97.14
2022-09-24T16:55:29.745Z,97.20
2022-09-24T16:57:32.829Z,97.40
2022-09-24T16:59:36.653Z,97.55
2022-09-24T17:01:42.328Z,97.45
2022-09-24T17:03:51.701Z,97.42
2022-09-24T17:05:54.656Z,97.76
2022-09-24T17:07:57.593Z,98.16
2022-09-24T17:10:15.981Z,98.88
2022-09-24T17:12:19.227Z,99.02
2022-09-24T17:14:22.223Z,99.92
2022-09-24T17:16:25.906Z,99.58
2022-09-24T17:18:28.870Z,99.60
2022-09-24T17:20:33.189Z,99.08
2022-09-24T17:22:36.308Z,100.00
2022-09-24T17:24:40.095Z,99.66
2022-09-24T17:26:43.111Z,100.00
2022-09-24T17:28:47.706Z,99.72
2022-09-24T17:30:52.310Z,99.86
2022-09-24T17:32:56.019Z,100.00
2022-09-24T17:34:59.033Z,100.00
2022-09-24T17:37:03.380Z,100.00
2022-09-24T17:39:07.096Z,100.00
2022-09-24T17:41:12.246Z,100.00
2022-09-24T17:43:15.237Z,100.00
2022-09-24T17:45:18.201Z,100.00
2022-09-24T17:47:21.175Z,100.00
2022-09-24T17:49:24.227Z,100.00
2022-09-24T17:51:30.350Z,100.00
2022-09-24T17:53:36.342Z,100.00
2022-09-24T17:55:41.275Z,100.00
2022-09-24T17:57:44.714Z,100.00
2022-09-24T17:59:47.709Z,100.00
2022-09-24T18:01:51.357Z,100.00
2022-09-24T18:03:55.132Z,100.00
2022-09-24T18:06:01.235Z,100.00
2022-09-24T18:08:04.611Z,100.00
2022-09-24T18:10:09.820Z,100.00
2022-09-24T18:12:17.057Z,100.00
2022-09-24T18:14:22.088Z,100.00
2022-09-24T18:16:26.675Z,100.00
2022-09-24T18:18:29.704Z,100.00
2022-09-24T18:20:32.762Z,100.00
2022-09-24T18:22:35.722Z,100.00
2022-09-24T18:24:38.881Z,100.00
2022-09-24T18:26:43.206Z,100.00
2022-09-24T18:28:49.357Z,100.00
2022-09-24T18:31:04.647Z,100.00
2022-09-24T18:33:08.136Z,100.00
2022-09-24T18:35:11.099Z,100.00
2022-09-24T18:37:14.014Z,100.00
2022-09-24T18:39:23.962Z,100.00
2022-09-24T18:41:29.870Z,100.00
2022-09-24T18:43:34.210Z,100.00
2022-09-24T18:45:37.325Z,100.00
2022-09-24T18:47:40.389Z,100.00
2022-09-24T18:49:44.235Z,100.00
2022-09-24T18:51:47.555Z,100.00
2022-09-24T18:53:52.665Z,100.00
2022-09-24T18:55:55.774Z,100.00
2022-09-24T18:57:58.747Z,100.00
2022-09-24T19:00:03.263Z,100.00
2022-09-24T19:02:06.370Z,100.00
2022-09-24T19:04:11.443Z,100.00
2022-09-24T19:06:14.516Z,100.00
2022-09-24T19:08:17.969Z,100.00
2022-09-24T19:10:20.936Z,100.00
2022-09-24T19:12:24.022Z,100.00
2022-09-24T19:14:27.247Z,100.00
2022-09-24T19:16:32.069Z,100.00
2022-09-24T19:18:36.598Z,100.00
2022-09-24T19:20:39.687Z,100.00
2022-09-24T19:22:50.023Z,100.00
2022-09-24T19:24:53.009Z,100.00
2022-09-24T19:26:56.037Z,100.00
2022-09-24T19:28:59.783Z,100.00
2022-09-24T19:31:03.856Z,100.00
2022-09-24T19:33:09.737Z,100.00
2022-09-24T19:35:14.095Z,100.00
2022-09-24T19:37:17.172Z,100.00
2022-09-24T19:39:20.281Z,100.00
2022-09-24T19:41:26.169Z,100.00
2022-09-24T19:43:29.512Z,100.00
2022-09-24T19:45:32.609Z,100.00
2022-09-24T19:47:35.655Z,100.00
2022-09-24T19:49:40.012Z,100.00
2022-09-24T19:51:43.046Z,100.00
2022-09-24T19:53:48.772Z,100.00
2022-09-24T19:55:51.708Z,100.00
2022-09-24T19:57:54.665Z,100.00
2022-09-24T19:59:57.637Z,100.00
2022-09-24T20:02:00.719Z,100.00
2022-09-24T20:04:05.379Z,100.00
2022-09-24T20:06:11.277Z,100.00
2022-09-24T20:08:15.130Z,100.00
2022-09-24T20:10:18.222Z,100.00
2022-09-24T20:12:21.117Z,100.00
2022-09-24T20:14:24.081Z,100.00
2022-09-24T20:16:28.317Z,100.00
2022-09-24T20:18:34.620Z,100.00
2022-09-24T20:20:37.670Z,100.00
2022-09-24T20:22:42.000Z,100.00
2022-09-24T20:24:44.977Z,100.00
2022-09-24T20:27:05.612Z,100.00
2022-09-24T20:29:09.648Z,100.00
2022-09-24T20:31:13.552Z,100.00
2022-09-24T20:33:17.667Z,100.00
2022-09-24T20:35:21.285Z,100.00
2022-09-24T20:37:24.495Z,100.00
2022-09-24T20:39:29.547Z,100.00
2022-09-24T20:41:32.537Z,100.00
2022-09-24T20:43:35.518Z,100.00
2022-09-24T20:45:41.218Z,100.00
2022-09-24T20:47:44.202Z,100.00
2022-09-24T20:49:47.184Z,100.00
2022-09-24T20:51:56.035Z,100.00
2022-09-24T20:54:00.764Z,100.00
2022-09-24T20:56:06.074Z,100.00
2022-09-24T20:58:09.086Z,100.00
2022-09-24T21:00:14.803Z,100.00
2022-09-24T21:02:17.877Z,100.00
2022-09-24T21:04:22.371Z,100.00
2022-09-24T21:06:25.425Z,100.00
2022-09-24T21:08:28.985Z,100.00
2022-09-24T21:10:32.492Z,100.00
2022-09-24T21:12:37.151Z,100.00
2022-09-24T21:14:40.279Z,100.00
2022-09-24T21:16:43.230Z,100.00
2022-09-24T21:18:46.557Z,100.00
2022-09-24T21:20:49.707Z,100.00
2022-09-24T21:22:52.711Z,100.00
2022-09-24T21:24:55.767Z,100.00
2022-09-24T21:27:00.068Z,100.00
2022-09-24T21:29:08.121Z,100.00
2022-09-24T21:31:11.310Z,100.00
2022-09-24T21:33:14.495Z,100.00
2022-09-24T21:35:17.668Z,100.00
2022-09-24T21:37:20.928Z,100.00
2022-09-24T21:39:26.510Z,100.00
2022-09-24T21:41:31.172Z,100.00
2022-09-24T21:43:35.124Z,100.00
2022-09-24T21:45:39.652Z,100.00
2022-09-24T21:47:42.621Z,100.00
2022-09-24T21:49:45.686Z,100.00
2022-09-24T21:51:48.647Z,100.00
2022-09-24T21:53:53.069Z,100.00
2022-09-24T21:55:56.013Z,100.00
2022-09-24T21:57:59.021Z,100.00
2022-09-24T22:00:04.368Z,100.00
2022-09-24T22:02:11.156Z,100.00
2022-09-24T22:04:14.242Z,100.00
2022-09-24T22:06:17.447Z,100.00
2022-09-24T22:08:27.159Z,100.00
2022-09-24T22:10:30.131Z,100.00
2022-09-24T22:12:35.361Z,100.00
2022-09-24T22:14:38.347Z,100.00
2022-09-24T22:16:41.501Z,100.00
2022-09-24T22:18:45.842Z,100.00
2022-09-24T22:20:49.748Z,100.00
2022-09-24T22:22:52.689Z,100.00
2022-09-24T22:24:55.755Z,100.00
2022-09-24T22:26:59.014Z,100.00
2022-09-24T22:29:03.766Z,100.00
2022-09-24T22:31:08.004Z,100.00
2022-09-24T22:33:31.060Z,100.00
2022-09-24T22:35:50.295Z,100.00
2022-09-24T22:37:53.260Z,100.00
2022-09-24T22:39:56.241Z,100.00
2022-09-24T22:41:59.146Z,100.00
2022-09-24T22:44:02.270Z,100.00
2022-09-24T22:46:07.264Z,100.00
2022-09-24T22:48:10.355Z,100.00
2022-09-24T22:50:13.728Z,100.00
2022-09-24T22:52:18.031Z,100.00
2022-09-24T22:54:20.978Z,100.00
2022-09-24T22:56:25.255Z,100.00
2022-09-24T22:58:28.225Z,100.00
2022-09-24T23:00:31.163Z,100.00
2022-09-24T23:02:35.473Z,100.00
2022-09-24T23:04:38.659Z,100.00
2022-09-24T23:06:42.126Z,100.00
2022-09-24T23:08:46.397Z,100.00
2022-09-24T23:10:49.308Z,100.00
2022-09-24T23:12:52.218Z,100.00
2022-09-24T23:14:58.078Z,100.00
2022-09-24T23:17:01.037Z,100.00
2022-09-24T23:19:05.892Z,100.00
2022-09-24T23:21:10.639Z,100.00
2022-09-24T23:23:13.650Z,100.00
2022-09-24T23:25:18.474Z,100.00
2022-09-24T23:27:21.873Z,100.00
2022-09-24T23:29:25.079Z,100.00
2022-09-24T23:31:29.533Z,100.00
2022-09-24T23:33:33.413Z,100.00
2022-09-24T23:35:36.278Z,100.00
2022-09-24T23:37:39.217Z,100.00
2022-09-24T23:39:42.145Z,100.00
2022-09-24T23:41:46.380Z,100.00
2022-09-24T23:43:49.332Z,100.00
2022-09-24T23:45:52.420Z,100.00
2022-09-24T23:47:55.403Z,100.00
2022-09-24T23:49:58.715Z,100.00
2022-09-24T23:52:01.996Z,100.00
2022-09-24T23:54:05.174Z,100.00
2022-09-24T23:56:09.166Z,100.00
2022-09-24T23:58:14.882Z,100.00
